Terminal Aerodrome Forecast
Issued by NWS Newport/Morehead City, NC

Home | Current Version | Previous Version | Graphics & Text | Print | Product List | Glossary On
Versions: 1 2 3 4 5 6 7 8 9 10 11 12 13
000
FTUS42 KMHX 181125
TAFEWN
TAF
KEWN 181125Z 1812/1912 17007KT 5SM SHRA VCTS OVC025CB
      TEMPO 1812/1813 2SM RA BKN025
     FM181500 17009G14KT P6SM VCTS OVC040CB
     FM190000 16009KT P6SM OVC030
     FM190600 16009KT 5SM SHRA OVC035=

USA.gov is the U.S. government's official web portal to all federal, state and local government web resources and services.